createdAt,value
2023-04-03T00:01:08.925Z,98999.25
2023-04-03T00:03:36.544Z,99000.75
2023-04-03T00:06:05.093Z,98997.13
2023-04-03T00:08:33.455Z,99003.00
2023-04-03T00:11:00.441Z,98996.72
2023-04-03T00:13:27.509Z,98997.59
2023-04-03T00:15:54.856Z,99000.38
2023-04-03T00:18:22.353Z,98996.13
2023-04-03T00:20:49.853Z,98998.13
2023-04-03T00:23:17.474Z,98998.22
2023-04-03T00:25:44.737Z,98998.13
2023-04-03T00:28:12.017Z,99001.72
2023-04-03T00:30:39.648Z,99005.53
2023-04-03T00:33:07.141Z,99004.50
2023-04-03T00:35:35.587Z,99003.56
2023-04-03T00:38:02.680Z,98999.56
2023-04-03T00:40:37.478Z,99001.09
2023-04-03T00:43:20.160Z,99001.38
2023-04-03T00:45:51.005Z,99006.88
2023-04-03T00:48:33.042Z,99007.72
2023-04-03T00:51:00.574Z,99000.97
2023-04-03T00:53:35.025Z,99009.34
2023-04-03T00:56:02.464Z,99007.00
2023-04-03T00:58:40.368Z,99009.72
2023-04-03T01:01:13.832Z,99004.19
2023-04-03T01:03:41.255Z,99014.22
2023-04-03T01:06:08.666Z,99011.53
2023-04-03T01:08:36.666Z,99008.31
2023-04-03T01:11:03.847Z,99011.91
2023-04-03T01:13:34.255Z,99002.72
2023-04-03T01:16:06.671Z,99007.72
2023-04-03T01:18:35.407Z,99006.19
2023-04-03T01:21:12.066Z,99012.00
2023-04-03T01:23:57.522Z,99014.31
2023-04-03T01:26:26.951Z,99006.53
2023-04-03T01:28:56.288Z,99011.00
2023-04-03T01:31:29.445Z,99011.53
2023-04-03T01:33:57.365Z,99007.34
2023-04-03T01:36:31.982Z,98997.78
2023-04-03T01:39:01.202Z,99003.69
2023-04-03T01:41:29.566Z,99002.19
2023-04-03T01:44:04.912Z,99015.56
2023-04-03T01:46:32.012Z,99006.75
2023-04-03T01:48:59.133Z,99004.28
2023-04-03T01:51:26.097Z,99010.69
2023-04-03T01:53:53.206Z,99013.41
2023-04-03T01:56:21.089Z,99011.63
2023-04-03T01:58:48.696Z,99017.72
2023-04-03T02:01:16.197Z,99017.72
2023-04-03T02:03:43.423Z,99016.84
2023-04-03T02:06:12.600Z,99015.16
2023-04-03T02:08:40.212Z,99015.50
2023-04-03T02:11:07.334Z,99010.53
2023-04-03T02:13:34.296Z,99016.84
2023-04-03T02:16:09.315Z,99019.38
2023-04-03T02:18:36.542Z,99015.84
2023-04-03T02:21:03.703Z,99013.66
2023-04-03T02:23:30.683Z,99014.75
2023-04-03T02:26:13.202Z,99017.09
2023-04-03T02:28:42.062Z,99014.69
2023-04-03T02:31:11.057Z,99018.63
2023-04-03T02:33:40.147Z,99019.88
2023-04-03T02:36:09.962Z,99024.56
2023-04-03T02:38:38.786Z,99018.25
2023-04-03T02:41:10.335Z,99018.47
2023-04-03T02:43:38.422Z,99016.09
2023-04-03T02:46:06.980Z,99027.00
2023-04-03T02:48:34.460Z,99017.78
2023-04-03T02:51:02.080Z,99022.84
2023-04-03T02:53:29.339Z,99028.53
2023-04-03T02:55:56.808Z,99022.47
2023-04-03T02:58:23.925Z,99026.81
2023-04-03T03:00:52.114Z,99023.00
2023-04-03T03:03:19.555Z,99027.81
2023-04-03T03:05:46.676Z,99023.09
2023-04-03T03:08:13.663Z,99026.22
2023-04-03T03:10:40.602Z,99023.22
2023-04-03T03:13:08.163Z,99024.38
2023-04-03T03:15:35.399Z,99026.88
2023-04-03T03:18:04.190Z,99018.16
2023-04-03T03:20:31.472Z,99020.34
2023-04-03T03:22:59.110Z,99020.53
2023-04-03T03:25:26.075Z,99018.78
2023-04-03T03:27:53.067Z,99015.09
2023-04-03T03:30:20.501Z,99014.97
2023-04-03T03:32:47.773Z,99021.50
2023-04-03T03:35:15.316Z,99018.78
2023-04-03T03:37:42.322Z,99017.34
2023-04-03T03:40:10.491Z,99014.34
2023-04-03T03:42:38.768Z,99006.81
2023-04-03T03:45:06.835Z,99012.31
2023-04-03T03:47:34.004Z,99018.88
2023-04-03T03:50:01.013Z,99008.19
2023-04-03T03:52:28.569Z,99012.38
2023-04-03T03:54:56.023Z,99001.75
2023-04-03T03:57:23.157Z,99007.28
2023-04-03T03:59:51.261Z,99008.22
2023-04-03T04:02:19.318Z,99009.56
2023-04-03T04:04:46.920Z,99005.59
2023-04-03T04:07:14.843Z,99006.00
2023-04-03T04:09:42.457Z,99014.75
2023-04-03T04:12:10.278Z,99016.22
2023-04-03T04:14:38.110Z,99010.41
2023-04-03T04:17:07.085Z,99008.22
2023-04-03T04:19:34.845Z,99008.28
2023-04-03T04:22:02.185Z,99006.25
2023-04-03T04:24:30.903Z,99012.47
2023-04-03T04:26:58.670Z,99011.84
2023-04-03T04:29:26.541Z,99013.16
2023-04-03T04:31:54.079Z,99017.06
2023-04-03T04:34:22.765Z,99017.41
2023-04-03T04:36:49.735Z,99016.94
2023-04-03T04:39:17.373Z,99027.13
2023-04-03T04:41:44.737Z,99024.72
2023-04-03T04:44:12.190Z,99017.03
2023-04-03T04:46:40.069Z,99023.72
2023-04-03T04:49:09.094Z,99021.84
2023-04-03T04:51:48.315Z,99014.78
2023-04-03T04:54:19.968Z,99020.56
2023-04-03T04:56:49.165Z,99021.44
2023-04-03T04:59:16.822Z,99021.53
2023-04-03T05:01:44.325Z,99032.91
2023-04-03T05:04:16.766Z,99030.13
2023-04-03T05:06:46.299Z,99038.81
2023-04-03T05:09:17.971Z,99036.88
2023-04-03T05:11:47.431Z,99032.19
2023-04-03T05:14:16.409Z,99036.25
2023-04-03T05:16:43.917Z,99042.34
2023-04-03T05:19:11.308Z,99043.28
2023-04-03T05:21:39.840Z,99042.00
2023-04-03T05:24:11.912Z,99045.31
2023-04-03T05:26:41.979Z,99048.69
2023-04-03T05:29:10.248Z,99043.63
2023-04-03T05:31:37.939Z,99051.47
2023-04-03T05:34:06.998Z,99044.69
2023-04-03T05:36:37.578Z,99052.75
2023-04-03T05:39:08.088Z,99049.97
2023-04-03T05:41:38.618Z,99050.25
2023-04-03T05:44:05.957Z,99056.47
2023-04-03T05:46:33.209Z,99052.09
2023-04-03T05:49:04.609Z,99060.91
2023-04-03T05:51:37.663Z,99052.91
2023-04-03T05:54:27.961Z,99065.72
2023-04-03T05:57:02.908Z,99062.25
2023-04-03T05:59:31.079Z,99067.66
2023-04-03T06:02:00.195Z,99069.25
2023-04-03T06:04:27.778Z,99068.41
2023-04-03T06:06:58.583Z,99070.22
2023-04-03T06:09:29.996Z,99068.09
2023-04-03T06:11:59.556Z,99069.31
2023-04-03T06:14:28.227Z,99068.06
2023-04-03T06:16:57.141Z,99071.34
2023-04-03T06:19:24.847Z,99073.13
2023-04-03T06:21:56.157Z,99081.78
2023-04-03T06:24:26.237Z,99080.53
2023-04-03T06:26:54.081Z,99079.16
2023-04-03T06:29:22.146Z,99083.75
2023-04-03T06:31:50.221Z,99092.47
2023-04-03T06:34:18.959Z,99082.47
2023-04-03T06:36:46.510Z,99081.81
2023-04-03T06:39:17.960Z,99088.78
2023-04-03T06:41:45.578Z,99089.97
2023-04-03T06:44:14.186Z,99084.78
2023-04-03T06:46:41.284Z,99090.81
2023-04-03T06:49:08.788Z,99095.84
2023-04-03T06:51:36.622Z,99092.91
2023-04-03T06:54:05.795Z,99095.50
2023-04-03T06:56:33.190Z,99102.66
2023-04-03T06:59:00.788Z,99106.09
2023-04-03T07:01:29.758Z,99095.47
2023-04-03T07:03:57.405Z,99107.31
2023-04-03T07:06:27.715Z,99102.25
2023-04-03T07:08:55.741Z,99109.81
2023-04-03T07:11:23.454Z,99110.41
2023-04-03T07:13:51.513Z,99112.25
2023-04-03T07:16:19.107Z,99112.41
2023-04-03T07:18:47.624Z,99116.09
2023-04-03T07:21:15.269Z,99117.09
2023-04-03T07:23:42.684Z,99124.41
2023-04-03T07:26:10.312Z,99119.09
2023-04-03T07:28:37.822Z,99126.13
2023-04-03T07:31:09.735Z,99116.19
2023-04-03T07:33:38.704Z,99122.94
2023-04-03T07:36:08.164Z,99124.69
2023-04-03T07:38:38.667Z,99124.34
2023-04-03T07:41:06.780Z,99132.28
2023-04-03T07:43:35.356Z,99134.47
2023-04-03T07:46:03.443Z,99129.94
2023-04-03T07:48:31.001Z,99135.41
2023-04-03T07:51:02.704Z,99133.66
2023-04-03T07:53:30.469Z,99131.25
2023-04-03T07:55:59.565Z,99136.78
2023-04-03T07:58:27.086Z,99141.38
2023-04-03T08:00:54.627Z,99143.22
2023-04-03T08:03:22.422Z,99140.97
2023-04-03T08:05:50.772Z,99150.03
2023-04-03T08:08:22.365Z,99139.13
2023-04-03T08:10:51.876Z,99141.88
2023-04-03T08:13:19.967Z,99149.25
2023-04-03T08:15:47.815Z,99148.31
2023-04-03T08:18:16.174Z,99146.50
2023-04-03T08:20:43.892Z,99143.72
2023-04-03T08:23:12.151Z,99154.66
2023-04-03T08:25:43.062Z,99151.34
2023-04-03T08:28:12.234Z,99145.09
2023-04-03T08:30:43.570Z,99140.75
2023-04-03T08:33:11.447Z,99147.19
2023-04-03T08:35:43.025Z,99145.13
2023-04-03T08:38:11.424Z,99142.69
2023-04-03T08:40:39.295Z,99143.53
2023-04-03T08:43:25.284Z,99150.84
2023-04-03T08:45:56.448Z,99145.84
2023-04-03T08:48:36.728Z,99152.09
2023-04-03T08:51:18.248Z,99154.09
2023-04-03T08:54:02.576Z,99153.81
2023-04-03T08:56:31.164Z,99155.69
2023-04-03T08:59:06.615Z,99149.63
2023-04-03T09:01:40.935Z,99149.41
2023-04-03T09:04:15.507Z,99158.28
2023-04-03T09:06:51.402Z,99151.25
2023-04-03T09:09:38.146Z,99156.63
2023-04-03T09:12:22.366Z,99163.47
2023-04-03T09:15:02.238Z,99157.75
2023-04-03T09:17:59.522Z,99157.59
2023-04-03T09:20:40.054Z,99162.97
2023-04-03T09:23:51.613Z,99151.88
2023-04-03T09:26:31.787Z,99149.78
2023-04-03T09:29:07.555Z,99149.94
2023-04-03T09:31:42.503Z,99155.16
2023-04-03T09:34:34.157Z,99145.69
2023-04-03T09:37:07.142Z,99152.41
2023-04-03T09:39:52.511Z,99147.44
2023-04-03T09:42:25.273Z,99138.25
2023-04-03T09:45:05.617Z,99146.28
2023-04-03T09:47:38.002Z,99144.31
2023-04-03T09:50:14.181Z,99139.97
2023-04-03T09:52:48.244Z,99146.38
2023-04-03T09:55:30.763Z,99141.91
2023-04-03T09:58:04.599Z,99140.50
2023-04-03T10:00:38.612Z,99149.84
2023-04-03T10:03:34.566Z,99150.00
2023-04-03T10:06:02.973Z,99143.50
2023-04-03T10:08:34.921Z,99140.91
2023-04-03T10:11:16.950Z,99144.75
2023-04-03T10:14:02.176Z,99140.50
2023-04-03T10:16:55.148Z,99136.41
2023-04-03T10:19:42.225Z,99132.97
2023-04-03T10:22:21.226Z,99125.84
2023-04-03T10:25:24.486Z,99124.59
2023-04-03T10:27:57.120Z,99128.31
2023-04-03T10:30:58.747Z,99136.19
2023-04-03T10:33:26.671Z,99121.47
2023-04-03T10:36:16.236Z,99125.34
2023-04-03T10:39:23.074Z,99125.81
2023-04-03T10:42:13.277Z,99128.16
2023-04-03T10:45:20.610Z,99137.28
2023-04-03T10:48:01.724Z,99136.41
2023-04-03T10:50:46.068Z,99147.06
2023-04-03T10:53:54.462Z,99132.31
2023-04-03T10:56:49.780Z,99134.25
2023-04-03T10:59:28.047Z,99137.69
2023-04-03T11:02:09.240Z,99133.81
2023-04-03T11:04:40.651Z,99142.78
2023-04-03T11:07:24.273Z,99137.75
2023-04-03T11:10:01.933Z,99130.69
2023-04-03T11:12:50.504Z,99132.34
2023-04-03T11:15:20.731Z,99131.53
2023-04-03T11:18:04.500Z,99129.72
2023-04-03T11:20:38.641Z,99133.00
2023-04-03T11:23:30.399Z,99129.66
2023-04-03T11:26:19.428Z,99137.47
2023-04-03T11:28:47.245Z,99132.59
2023-04-03T11:31:25.176Z,99130.44
2023-04-03T11:34:41.262Z,99120.88
2023-04-03T11:37:27.161Z,99121.66
2023-04-03T11:40:16.988Z,99122.09
2023-04-03T11:42:49.920Z,99114.34
2023-04-03T11:45:23.241Z,99107.94
2023-04-03T11:47:59.613Z,99115.28
2023-04-03T11:50:41.924Z,99110.38
2023-04-03T11:53:14.622Z,99107.28
2023-04-03T11:55:50.814Z,99103.09
2023-04-03T11:58:27.354Z,99104.16
2023-04-03T12:01:03.914Z,99089.81
2023-04-03T12:03:48.221Z,99094.97
2023-04-03T12:06:20.718Z,99090.00
2023-04-03T12:08:57.430Z,99093.56
2023-04-03T12:11:43.596Z,99087.00
2023-04-03T12:14:17.498Z,99087.19
2023-04-03T12:16:48.406Z,99081.97
2023-04-03T12:19:15.910Z,99081.31
2023-04-03T12:21:57.965Z,99090.53
2023-04-03T12:24:31.121Z,99085.09
2023-04-03T12:26:58.123Z,99085.06
2023-04-03T12:29:34.243Z,99085.69
2023-04-03T12:32:37.578Z,99074.16
2023-04-03T12:35:37.425Z,99067.91
2023-04-03T12:38:35.325Z,99070.69
2023-04-03T12:41:53.571Z,99071.53
2023-04-03T12:44:37.954Z,99077.03
2023-04-03T12:47:25.615Z,99063.72
2023-04-03T12:49:54.531Z,99064.97
2023-04-03T12:52:45.500Z,99064.81
2023-04-03T12:55:19.315Z,99049.44
2023-04-03T12:57:47.175Z,99060.47
2023-04-03T13:00:40.565Z,99050.19
2023-04-03T13:03:26.898Z,99053.50
2023-04-03T13:06:01.571Z,99059.44
2023-04-03T13:08:29.681Z,99054.53
2023-04-03T13:11:03.405Z,99054.41
2023-04-03T13:13:31.243Z,99053.69
2023-04-03T13:15:58.758Z,99056.47
2023-04-03T13:18:33.495Z,99062.28
2023-04-03T13:21:07.325Z,99045.81
2023-04-03T13:23:37.760Z,99055.56
2023-04-03T13:26:06.130Z,99066.16
2023-04-03T13:28:34.725Z,99058.50
2023-04-03T13:31:24.792Z,99052.06
2023-04-03T13:34:12.126Z,99043.75
2023-04-03T13:36:43.254Z,99056.47
2023-04-03T13:39:16.534Z,99048.81
2023-04-03T13:41:50.004Z,99027.13
2023-04-03T13:44:24.280Z,99039.13
2023-04-03T13:46:57.463Z,99046.38
2023-04-03T13:49:28.459Z,99047.56
2023-04-03T13:52:07.438Z,99050.25
2023-04-03T13:54:36.719Z,99041.78
2023-04-03T13:57:04.520Z,99047.63
2023-04-03T13:59:37.150Z,99046.50
2023-04-03T14:02:04.056Z,99047.22
2023-04-03T14:04:34.355Z,99041.91
2023-04-03T14:07:01.523Z,99045.97
2023-04-03T14:09:29.403Z,99041.94
2023-04-03T14:12:06.003Z,99042.38
2023-04-03T14:14:36.663Z,99042.91
2023-04-03T14:17:11.713Z,99037.09
2023-04-03T14:19:55.696Z,99030.38
2023-04-03T14:22:30.675Z,99039.19
2023-04-03T14:24:58.505Z,99040.91
2023-04-03T14:27:40.412Z,99037.16
2023-04-03T14:30:12.816Z,99040.47
2023-04-03T14:32:39.907Z,99039.97
2023-04-03T14:35:07.744Z,99030.41
2023-04-03T14:37:36.364Z,99024.34
2023-04-03T14:40:07.128Z,99037.22
2023-04-03T14:42:37.549Z,99034.78
2023-04-03T14:45:10.026Z,99037.09
2023-04-03T14:47:48.504Z,99028.06
2023-04-03T14:50:22.059Z,99030.66
2023-04-03T14:52:52.379Z,99034.91
2023-04-03T14:55:22.958Z,99022.47
2023-04-03T14:57:50.344Z,99020.69
2023-04-03T15:00:21.646Z,99014.69
2023-04-03T15:02:49.712Z,99007.72
2023-04-03T15:05:17.790Z,98998.25
2023-04-03T15:07:55.775Z,99000.94
2023-04-03T15:10:28.599Z,99012.75
2023-04-03T15:12:56.702Z,99008.28
2023-04-03T15:15:25.003Z,99010.03
2023-04-03T15:17:55.514Z,99020.69
2023-04-03T15:20:27.263Z,99016.91
2023-04-03T15:22:57.167Z,99012.06
2023-04-03T15:25:26.334Z,99019.63
2023-04-03T15:27:58.413Z,99016.44
2023-04-03T15:30:26.171Z,99020.63
2023-04-03T15:32:54.317Z,99011.88
2023-04-03T15:35:22.033Z,99020.66
2023-04-03T15:37:49.268Z,99020.47
2023-04-03T15:40:16.530Z,99015.41
2023-04-03T15:42:43.987Z,99012.09
2023-04-03T15:45:11.619Z,99014.22
2023-04-03T15:47:38.812Z,99015.03
2023-04-03T15:50:08.785Z,99022.31
2023-04-03T15:52:36.369Z,99020.03
2023-04-03T15:55:04.451Z,99006.16
2023-04-03T15:59:59.426Z,99003.88
2023-04-03T16:02:28.328Z,99009.28
2023-04-03T16:04:56.557Z,99006.97
2023-04-03T16:07:23.499Z,99010.56
2023-04-03T16:09:51.113Z,99005.03
2023-04-03T16:12:18.264Z,99004.06
2023-04-03T16:14:45.616Z,99013.66
2023-04-03T16:17:12.575Z,99015.03
2023-04-03T16:19:40.010Z,99016.84
2023-04-03T16:22:07.116Z,99008.22
2023-04-03T16:24:34.567Z,99016.53
2023-04-03T16:27:01.610Z,99017.00
2023-04-03T16:29:28.718Z,99013.13
2023-04-03T16:31:57.561Z,99016.38
2023-04-03T16:34:26.564Z,99016.91
2023-04-03T16:36:54.196Z,99019.50
2023-04-03T16:39:21.868Z,99018.94
2023-04-03T16:41:48.849Z,99015.66
2023-04-03T16:44:16.252Z,99015.47
2023-04-03T16:46:43.493Z,99015.66
2023-04-03T16:49:11.365Z,99019.50
2023-04-03T16:51:38.801Z,99019.22
2023-04-03T16:54:07.467Z,99028.00
2023-04-03T16:56:34.916Z,99020.28
2023-04-03T16:59:02.524Z,99016.66
2023-04-03T17:01:30.037Z,99016.97
2023-04-03T17:03:57.492Z,99024.31
2023-04-03T17:06:25.095Z,99019.06
2023-04-03T17:08:53.193Z,99023.88
2023-04-03T17:11:30.102Z,99027.41
2023-04-03T17:13:57.510Z,99031.00
2023-04-03T17:16:25.710Z,99030.25
2023-04-03T17:18:54.130Z,99030.66
2023-04-03T17:21:22.407Z,99032.59
2023-04-03T17:23:58.743Z,99025.13
2023-04-03T17:26:27.506Z,99026.72
2023-04-03T17:28:54.831Z,99029.16
2023-04-03T17:31:22.639Z,99024.88
2023-04-03T17:33:51.546Z,99031.50
2023-04-03T17:36:18.610Z,99036.22
2023-04-03T17:38:45.997Z,99020.50
2023-04-03T17:41:13.344Z,99032.75
2023-04-03T17:43:40.391Z,99025.38
2023-04-03T17:46:11.536Z,99021.13
2023-04-03T17:48:41.481Z,99024.09
2023-04-03T17:51:13.049Z,99025.25
2023-04-03T17:53:40.865Z,99023.44
2023-04-03T17:56:24.180Z,99035.03
2023-04-03T17:58:51.939Z,99032.53
2023-04-03T18:01:26.705Z,99030.56
2023-04-03T18:03:58.673Z,99032.50
2023-04-03T18:06:33.825Z,99031.13
2023-04-03T18:09:09.575Z,99033.56
2023-04-03T18:11:37.211Z,99032.44
2023-04-03T18:14:07.858Z,99032.25
2023-04-03T18:16:35.659Z,99031.50
2023-04-03T18:19:21.321Z,99035.91
2023-04-03T18:21:51.214Z,99046.00
2023-04-03T18:24:20.677Z,99041.44
2023-04-03T18:26:53.974Z,99044.06
2023-04-03T18:29:21.738Z,99048.28
2023-04-03T18:31:52.757Z,99046.09
2023-04-03T18:34:19.915Z,99045.59
2023-04-03T18:36:47.693Z,99049.94
2023-04-03T18:39:15.568Z,99051.59
2023-04-03T18:41:43.320Z,99047.47
2023-04-03T18:44:16.070Z,99052.38
2023-04-03T18:46:43.348Z,99055.53
2023-04-03T18:49:12.491Z,99050.78
2023-04-03T18:51:40.517Z,99057.06
2023-04-03T18:54:09.907Z,99055.31
2023-04-03T18:56:37.877Z,99062.38
2023-04-03T18:59:08.135Z,99063.66
2023-04-03T19:01:35.856Z,99068.56
2023-04-03T19:04:03.472Z,99064.56
2023-04-03T19:06:30.587Z,99064.75
2023-04-03T19:08:57.933Z,99065.44
2023-04-03T19:11:25.392Z,99064.72
2023-04-03T19:14:10.642Z,99069.47
2023-04-03T19:16:40.102Z,99072.94
2023-04-03T19:19:07.542Z,99071.66
2023-04-03T19:21:38.391Z,99072.06
2023-04-03T19:24:06.421Z,99074.75
2023-04-03T19:26:33.501Z,99080.22
2023-04-03T19:29:00.635Z,99070.47
2023-04-03T19:31:28.347Z,99067.59
2023-04-03T19:33:56.237Z,99067.44
2023-04-03T19:36:23.757Z,99075.50
2023-04-03T19:38:50.897Z,99081.03
2023-04-03T19:41:22.812Z,99072.13
2023-04-03T19:43:52.821Z,99073.78
2023-04-03T19:46:26.624Z,99077.63
2023-04-03T19:48:54.120Z,99081.81
2023-04-03T19:51:21.325Z,99080.25
2023-04-03T19:53:48.572Z,99083.72
2023-04-03T19:56:16.626Z,99085.59
2023-04-03T19:58:43.997Z,99085.44
2023-04-03T20:01:11.463Z,99075.94
2023-04-03T20:03:39.983Z,99084.44
2023-04-03T20:06:07.455Z,99074.06
2023-04-03T20:08:37.004Z,99079.91
2023-04-03T20:11:03.933Z,99081.50
2023-04-03T20:13:30.976Z,99089.41
2023-04-03T20:16:01.821Z,99080.19
2023-04-03T20:18:28.905Z,99079.41
2023-04-03T20:20:59.893Z,99080.41
2023-04-03T20:23:28.071Z,99078.56
2023-04-03T20:26:06.616Z,99076.97
2023-04-03T20:28:37.767Z,99076.03
2023-04-03T20:31:04.822Z,99083.31
2023-04-03T20:33:32.034Z,99083.97
2023-04-03T20:35:59.533Z,99074.31
2023-04-03T20:38:26.922Z,99083.81
2023-04-03T20:40:53.975Z,99078.81
2023-04-03T20:43:23.125Z,99080.91
2023-04-03T20:45:50.890Z,99083.19
2023-04-03T20:48:18.709Z,99086.34
2023-04-03T20:50:46.502Z,99092.91
2023-04-03T20:53:14.912Z,99084.06
2023-04-03T20:55:42.638Z,99091.66
2023-04-03T20:58:11.351Z,99096.28
2023-04-03T21:00:38.401Z,99098.00
2023-04-03T21:03:06.004Z,99092.00
2023-04-03T21:05:37.456Z,99089.47
2023-04-03T21:09:01.257Z,99084.41
2023-04-03T21:12:24.964Z,99075.53
2023-04-03T21:15:49.074Z,99085.06
2023-04-03T21:18:24.714Z,99088.91
2023-04-03T21:20:52.818Z,99086.28
2023-04-03T21:23:20.450Z,99080.97
2023-04-03T21:25:48.899Z,99077.69
2023-04-03T21:28:17.248Z,99085.19
2023-04-03T21:30:44.499Z,99079.09
2023-04-03T21:33:14.100Z,99081.94
2023-04-03T21:35:41.658Z,99087.13
2023-04-03T21:38:09.087Z,99083.19
2023-04-03T21:40:36.201Z,99084.88
2023-04-03T21:43:05.081Z,99082.53
2023-04-03T21:45:32.313Z,99082.22
2023-04-03T21:48:00.289Z,99083.03
2023-04-03T21:50:27.825Z,99082.78
2023-04-03T21:52:55.369Z,99079.66
2023-04-03T21:55:22.732Z,99091.38
2023-04-03T21:57:53.745Z,99076.47
2023-04-03T22:00:21.643Z,99083.06
2023-04-03T22:02:51.241Z,99085.03
2023-04-03T22:05:20.262Z,99085.84
2023-04-03T22:07:48.516Z,99088.91
2023-04-03T22:10:16.539Z,99089.84
2023-04-03T22:12:44.182Z,99091.69
2023-04-03T22:15:11.821Z,99090.31
2023-04-03T22:17:39.551Z,99095.00
2023-04-03T22:20:07.903Z,99092.47
2023-04-03T22:22:35.375Z,99090.84
2023-04-03T22:25:05.869Z,99096.38
2023-04-03T22:27:33.272Z,99095.94
2023-04-03T22:30:00.977Z,99100.53
2023-04-03T22:32:28.521Z,99100.81
2023-04-03T22:34:55.532Z,99096.38
2023-04-03T22:37:22.554Z,99103.31
2023-04-03T22:39:50.068Z,99096.06
2023-04-03T22:42:17.730Z,99094.97
2023-04-03T22:44:44.759Z,99089.75
2023-04-03T22:47:11.768Z,99098.06
2023-04-03T22:49:39.282Z,99094.88
2023-04-03T22:52:06.294Z,99090.28
2023-04-03T22:54:33.582Z,99092.63
2023-04-03T22:57:00.934Z,99092.38
2023-04-03T22:59:28.373Z,99099.56
2023-04-03T23:01:55.819Z,99092.09
2023-04-03T23:04:24.478Z,99093.19
2023-04-03T23:06:51.621Z,99094.31
2023-04-03T23:09:18.987Z,99096.66
2023-04-03T23:11:46.035Z,99093.91
2023-04-03T23:14:13.842Z,99094.03
2023-04-03T23:16:42.114Z,99096.94
2023-04-03T23:19:09.452Z,99097.63
2023-04-03T23:21:36.441Z,99098.03
2023-04-03T23:24:03.881Z,99104.16
2023-04-03T23:26:31.302Z,99105.69
2023-04-03T23:28:58.623Z,99108.41
2023-04-03T23:31:26.090Z,99110.22
2023-04-03T23:33:55.424Z,99107.75
2023-04-03T23:36:22.804Z,99106.91
2023-04-03T23:38:50.230Z,99110.66
2023-04-03T23:41:17.249Z,99119.50
2023-04-03T23:43:46.423Z,99109.09
2023-04-03T23:46:13.475Z,99112.72
2023-04-03T23:48:40.903Z,99104.97
2023-04-03T23:51:08.308Z,99103.31
2023-04-03T23:53:35.318Z,99109.00
2023-04-03T23:56:02.225Z,99103.69
2023-04-03T23:58:29.161Z,99103.72
